Time;durP1;ratioP1;P1;durP2;ratioP2;P2;SDS_P1;SDS_P2;PMS_P1;PMS_P2;Temp;Humidity;BMP_temperature;BMP_pressure;BME280_temperature;BME280_humidity;BME280_pressure;Samples;Min_cycle;Max_cycle;Signal;HPM_P1;HPM_P2
2022/05/24 00:00:38;;;;;;;39.93;24.23;;;;;;;13.17;100.00;100028.63;4992549;28;20050;-85
2022/05/24 00:03:04;;;;;;;36.30;23.70;;;;;;;13.15;100.00;100027.34;4996489;28;20292;-85
2022/05/24 00:05:32;;;;;;;33.17;22.23;;;;;;;13.14;100.00;100020.38;5011097;28;20041;-86
2022/05/24 00:07:57;;;;;;;35.60;21.48;;;;;;;13.07;100.00;100010.00;5008710;28;20037;-85
2022/05/24 00:10:27;;;;;;;29.97;20.27;;;;;;;12.96;100.00;100016.63;5010900;28;20481;-85
2022/05/24 00:12:53;;;;;;;33.08;19.35;;;;;;;12.77;100.00;99998.66;5011637;28;20042;-86
2022/05/24 00:15:22;;;;;;;29.83;18.40;;;;;;;12.69;100.00;99999.28;5003179;28;20053;-86
2022/05/24 00:17:52;;;;;;;29.38;17.67;;;;;;;12.50;100.00;99989.34;4991586;28;20030;-85
2022/05/24 00:20:18;;;;;;;27.95;16.83;;;;;;;12.39;100.00;99996.75;4991355;28;20401;-85
2022/05/24 00:22:43;;;;;;;27.97;17.73;;;;;;;12.32;100.00;99993.66;5009079;28;20029;-86
2022/05/24 00:25:09;;;;;;;32.50;18.35;;;;;;;12.30;100.00;100003.06;5009809;28;20076;-86
2022/05/24 00:27:35;;;;;;;32.53;18.57;;;;;;;12.16;100.00;99990.38;5008226;28;20105;-85
2022/05/24 00:30:02;;;;;;;27.95;17.40;;;;;;;12.20;100.00;100010.19;4990888;28;20034;-85
2022/05/24 00:32:27;;;;;;;31.53;17.70;;;;;;;12.26;100.00;100008.22;4990709;28;20030;-85
2022/05/24 00:34:54;;;;;;;31.27;17.27;;;;;;;12.21;100.00;100000.22;5007138;28;20428;-86
2022/05/24 00:37:23;;;;;;;30.17;17.25;;;;;;;12.16;100.00;100009.16;5010205;28;20022;-85
2022/05/24 00:39:48;;;;;;;29.50;18.20;;;;;;;12.08;100.00;99999.03;5010445;28;20037;-86
2022/05/24 00:42:19;;;;;;;30.67;17.57;;;;;;;12.04;100.00;99998.03;5010174;28;20386;-85
2022/05/24 00:44:51;;;;;;;37.45;17.00;;;;;;;11.92;100.00;99993.06;5001730;28;20022;-86
2022/05/24 00:47:30;;;;;;;29.27;14.93;;;;;;;11.93;100.00;99994.66;4991363;28;20106;-85
2022/05/24 00:49:59;;;;;;;31.60;15.43;;;;;;;11.85;100.00;99993.41;5005355;28;20336;-85
2022/05/24 00:52:29;;;;;;;33.28;15.05;;;;;;;11.84;100.00;100005.22;5010346;28;20022;-86
2022/05/24 00:54:55;;;;;;;24.63;15.00;;;;;;;11.75;100.00;100010.44;5009506;28;20026;-86
2022/05/24 00:57:36;;;;;;;30.77;16.23;;;;;;;11.69;100.00;100002.69;5010811;28;20088;-86
2022/05/24 01:00:08;;;;;;;31.85;14.98;;;;;;;11.68;100.00;100009.16;5007652;28;20079;-85
2022/05/24 01:02:41;;;;;;;27.97;14.30;;;;;;;11.63;100.00;100004.63;5011826;28;20551;-85
2022/05/24 01:05:24;;;;;;;26.27;14.90;;;;;;;11.54;100.00;99996.41;5014524;28;20276;-85
2022/05/24 01:07:50;;;;;;;30.83;14.73;;;;;;;11.56;100.00;99998.81;5014143;28;20041;-86
2022/05/24 01:10:20;;;;;;;27.58;13.13;;;;;;;11.43;100.00;100000.28;5012747;28;20589;-85
2022/05/24 01:12:53;;;;;;;29.13;13.27;;;;;;;11.46;100.00;100005.09;5013988;28;20034;-85
2022/05/24 01:15:20;;;;;;;24.38;12.98;;;;;;;11.40;100.00;99992.81;5014041;28;20038;-86
2022/05/24 01:17:48;;;;;;;24.90;13.02;;;;;;;11.35;100.00;99999.03;5012555;28;20037;-85
2022/05/24 01:20:13;;;;;;;27.83;12.80;;;;;;;11.36;100.00;99998.72;5013446;28;20045;-85
2022/05/24 01:22:52;;;;;;;20.13;12.30;;;;;;;11.36;100.00;100000.63;5013602;28;20022;-86
2022/05/24 01:25:54;;;;;;;26.70;11.60;;;;;;;11.29;100.00;99992.91;5012943;28;20034;-85
2022/05/24 01:28:33;;;;;;;25.95;11.50;;;;;;;11.29;100.00;100002.81;5013534;28;20030;-85
2022/05/24 01:31:00;;;;;;;25.50;12.18;;;;;;;11.27;100.00;99999.63;5012165;28;20044;-85
2022/05/24 01:36:11;;;;;;;22.30;10.93;;;;;;;11.26;100.00;100008.75;5014337;28;20037;-87
2022/05/24 01:38:45;;;;;;;20.83;9.57;;;;;;;11.18;100.00;100007.47;5012845;28;20284;-86
2022/05/24 01:41:16;;;;;;;18.77;9.23;;;;;;;11.11;100.00;100007.03;5009198;28;20034;-87
2022/05/24 01:43:43;;;;;;;22.50;9.95;;;;;;;11.11;100.00;100012.38;5002718;28;20025;-87
2022/05/24 01:46:11;;;;;;;22.58;9.30;;;;;;;11.16;100.00;100015.00;5013871;28;20022;-87
2022/05/24 01:48:42;;;;;;;19.33;7.75;;;;;;;11.09;100.00;100009.19;5014493;28;20025;-87
2022/05/24 01:51:12;;;;;;;16.45;7.75;;;;;;;11.10;100.00;100006.22;5000874;28;20080;-86
2022/05/24 01:53:42;;;;;;;17.83;7.45;;;;;;;11.04;100.00;100016.19;5013680;28;20477;-85
2022/05/24 01:56:14;;;;;;;21.08;7.93;;;;;;;10.99;100.00;100010.84;5010143;28;20117;-86
2022/05/24 01:58:41;;;;;;;21.70;7.43;;;;;;;10.99;100.00;100002.81;5012951;28;20108;-85
2022/05/24 02:01:22;;;;;;;16.57;7.23;;;;;;;10.99;100.00;100002.81;5010955;28;20041;-85
2022/05/24 02:03:47;;;;;;;16.47;7.03;;;;;;;10.95;100.00;99990.25;5012424;28;20655;-85
2022/05/24 02:06:26;;;;;;;14.77;6.00;;;;;;;10.91;100.00;100003.44;5013429;28;20034;-85
2022/05/24 02:08:53;;;;;;;12.97;5.37;;;;;;;10.85;100.00;99988.44;5009837;28;20080;-85
2022/05/24 02:11:23;;;;;;;19.75;6.18;;;;;;;10.82;100.00;100007.78;5011589;28;20022;-86
2022/05/24 02:13:53;;;;;;;15.60;6.07;;;;;;;10.72;100.00;100006.78;5011140;28;20041;-85
2022/05/24 02:16:22;;;;;;;17.50;6.03;;;;;;;10.74;100.00;100012.66;5011971;28;20117;-85
2022/05/24 02:18:50;;;;;;;14.80;5.70;;;;;;;10.68;100.00;100011.09;5011808;28;20049;-85
2022/05/24 02:21:15;;;;;;;12.40;5.20;;;;;;;10.70;100.00;100016.97;5012441;28;20394;-85
2022/05/24 02:23:44;;;;;;;13.80;4.83;;;;;;;10.69;100.00;100015.38;4995835;28;20060;-85
2022/05/24 02:26:12;;;;;;;14.65;4.97;;;;;;;10.79;100.00;100024.41;5012420;28;20501;-85
2022/05/24 02:28:37;;;;;;;13.65;5.07;;;;;;;10.80;100.00;100012.59;5012329;28;20421;-86
2022/05/24 02:31:12;;;;;;;17.40;4.80;;;;;;;10.86;100.00;100023.00;5011342;28;20030;-86
2022/05/24 02:33:38;;;;;;;11.40;4.35;;;;;;;10.85;100.00;100013.38;5004462;28;20035;-86
2022/05/24 02:36:07;;;;;;;12.80;4.40;;;;;;;10.81;100.00;100014.19;4991921;28;20067;-86
2022/05/24 02:38:33;;;;;;;12.98;4.25;;;;;;;10.79;100.00;100005.63;5008357;28;20022;-86
2022/05/24 02:43:44;;;;;;;12.37;4.47;;;;;;;10.70;100.00;100008.13;5012295;28;20049;-86
2022/05/24 02:46:10;;;;;;;12.90;4.20;;;;;;;10.62;100.00;100006.81;5006919;28;20289;-86
2022/05/24 02:48:36;;;;;;;10.63;3.88;;;;;;;10.69;100.00;100017.22;5010398;28;20508;-86
2022/05/24 02:51:05;;;;;;;15.50;4.07;;;;;;;10.70;100.00;100018.84;4995118;28;20037;-85
2022/05/24 02:53:31;;;;;;;11.70;3.90;;;;;;;10.73;100.00;100013.72;5014727;28;20470;-86
2022/05/24 02:56:06;;;;;;;10.93;3.70;;;;;;;10.81;100.00;100024.91;5020041;28;20178;-85
2022/05/24 02:58:33;;;;;;;13.60;4.00;;;;;;;10.75;100.00;100011.59;5019422;28;20037;-85
2022/05/24 03:00:58;;;;;;;11.77;3.97;;;;;;;10.79;100.00;100014.50;5035070;28;20006;-85
2022/05/24 03:03:25;;;;;;;14.60;3.60;;;;;;;10.66;100.00;99985.66;5029432;28;20307;-85
2022/05/24 03:05:51;;;;;;;8.85;3.40;;;;;;;10.63;100.00;99997.72;5023375;28;20109;-85
2022/05/24 03:11:01;;;;;;;10.80;3.53;;;;;;;10.49;100.00;100007.44;5018586;28;20512;-85
2022/05/24 03:16:14;;;;;;;15.23;3.88;;;;;;;10.43;100.00;100020.88;5018046;28;20125;-85
2022/05/24 03:18:41;;;;;;;14.23;3.57;;;;;;;10.37;100.00;100013.94;5013182;28;20151;-86
2022/05/24 03:21:07;;;;;;;12.77;3.63;;;;;;;10.38;100.00;100012.88;5015096;28;20311;-85
2022/05/24 03:23:32;;;;;;;11.20;3.75;;;;;;;10.39;100.00;100017.16;5016034;28;20053;-86
2022/05/24 03:25:58;;;;;;;15.88;4.30;;;;;;;10.48;100.00;100021.91;5010679;28;20481;-86
2022/05/24 03:28:23;;;;;;;12.00;4.00;;;;;;;10.56;100.00;100038.22;5012554;28;20377;-85
2022/05/24 03:30:49;;;;;;;18.20;4.07;;;;;;;10.56;100.00;100018.66;5009831;28;20105;-86
2022/05/24 03:33:14;;;;;;;11.32;3.67;;;;;;;10.67;100.00;100025.56;5012512;28;20500;-86
2022/05/24 03:35:40;;;;;;;12.90;3.80;;;;;;;10.81;100.00;100041.00;5010979;28;20028;-87
2022/05/24 03:38:06;;;;;;;11.68;3.95;;;;;;;10.84;100.00;100035.09;5012425;28;20029;-87
2022/05/24 03:40:31;;;;;;;9.97;4.03;;;;;;;10.83;100.00;100026.25;5011192;28;20033;-87
2022/05/24 03:42:57;;;;;;;10.70;4.10;;;;;;;10.82;100.00;100015.81;5009032;28;20034;-86
2022/05/24 03:45:23;;;;;;;10.70;4.53;;;;;;;10.85;100.00;100025.97;5006157;28;20030;-87
2022/05/24 03:47:49;;;;;;;13.27;4.10;;;;;;;10.88;100.00;100017.38;5011004;28;20041;-88
2022/05/24 03:50:15;;;;;;;15.13;4.47;;;;;;;10.88;100.00;100014.69;5011444;28;20026;-87
2022/05/24 03:52:40;;;;;;;16.63;5.27;;;;;;;10.90;100.00;100033.97;5010024;28;20032;-87
2022/05/24 03:55:06;;;;;;;13.82;5.50;;;;;;;10.95;100.00;100041.19;5010720;28;20105;-87
2022/05/24 04:00:27;;;;;;;12.88;5.32;;;;;;;11.00;100.00;100054.56;5010205;28;20096;-87
2022/05/24 04:02:52;;;;;;;14.00;5.70;;;;;;;10.99;100.00;100055.63;5010873;28;20029;-87
2022/05/24 04:05:18;;;;;;;19.93;5.57;;;;;;;11.03;100.00;100065.50;5011657;28;20040;-87
2022/05/24 04:07:43;;;;;;;14.15;5.30;;;;;;;10.97;100.00;100087.28;5010692;28;20536;-87
2022/05/24 04:10:11;;;;;;;12.67;5.13;;;;;;;11.00;100.00;100092.88;5009951;28;20106;-87
2022/05/24 04:12:36;;;;;;;14.93;4.85;;;;;;;11.10;100.00;100091.22;5010541;28;20022;-87
2022/05/24 04:15:02;;;;;;;13.10;4.13;;;;;;;11.09;100.00;100094.97;5010237;28;20574;-87
2022/05/24 04:17:28;;;;;;;12.55;4.32;;;;;;;11.03;100.00;100091.53;5000498;28;20058;-87
2022/05/24 04:19:53;;;;;;;14.30;4.87;;;;;;;11.10;100.00;100092.00;5006719;28;20034;-87
2022/05/24 04:22:18;;;;;;;15.80;4.43;;;;;;;11.17;100.00;100089.00;5005464;28;20030;-87
2022/05/24 04:24:44;;;;;;;13.77;4.17;;;;;;;11.09;100.00;100060.91;4993802;28;20080;-87
2022/05/24 04:27:09;;;;;;;9.93;3.90;;;;;;;11.09;100.00;100042.13;4991644;28;20622;-87
2022/05/24 04:29:38;;;;;;;15.70;3.80;;;;;;;11.07;100.00;100046.97;4999742;28;20500;-87
2022/05/24 04:32:04;;;;;;;11.70;3.53;;;;;;;11.05;100.00;100052.63;4992761;28;20029;-87
2022/05/24 04:34:29;;;;;;;11.47;3.40;;;;;;;10.98;100.00;100048.66;5006780;28;20025;-87
2022/05/24 04:36:54;;;;;;;9.52;3.25;;;;;;;10.95;100.00;100079.53;5008556;28;20030;-86
2022/05/24 04:39:20;;;;;;;9.60;3.30;;;;;;;11.03;100.00;100100.38;5011070;28;20113;-87
2022/05/24 04:44:29;;;;;;;12.10;3.28;;;;;;;11.02;100.00;100100.66;5007627;28;20109;-87
2022/05/24 04:47:10;;;;;;;9.07;3.23;;;;;;;11.05;100.00;100095.53;5010384;28;20497;-87
2022/05/24 04:49:53;;;;;;;12.90;3.20;;;;;;;11.08;100.00;100093.38;5008729;28;20040;-87
2022/05/24 04:52:21;;;;;;;13.40;3.55;;;;;;;11.03;100.00;100092.31;5010239;28;20068;-87
2022/05/24 04:54:46;;;;;;;12.95;3.38;;;;;;;11.03;100.00;100099.56;4990852;28;20085;-87
2022/05/24 04:57:13;;;;;;;12.07;3.37;;;;;;;11.06;100.00;100099.81;4994980;28;20025;-87
2022/05/24 04:59:39;;;;;;;11.70;3.10;;;;;;;11.08;100.00;100101.41;5009385;28;20034;-87
2022/05/24 05:02:06;;;;;;;13.83;3.20;;;;;;;11.04;100.00;100110.00;5010273;28;20777;-88
2022/05/24 05:04:31;;;;;;;11.27;3.08;;;;;;;11.05;100.00;100125.03;5009572;28;20034;-88
2022/05/24 05:06:57;;;;;;;12.90;3.00;;;;;;;11.15;100.00;100136.75;5010401;28;20541;-88
2022/05/24 05:09:24;;;;;;;8.68;2.55;;;;;;;11.17;100.00;100132.72;5010470;28;20085;-87
2022/05/24 05:11:49;;;;;;;8.50;2.57;;;;;;;11.22;100.00;100134.56;5009958;28;20080;-87
2022/05/24 05:14:15;;;;;;;12.70;2.90;;;;;;;11.28;100.00;100144.19;5010920;28;20046;-87
2022/05/24 05:16:42;;;;;;;13.30;2.77;;;;;;;11.33;100.00;100154.06;5008509;28;20485;-88
2022/05/24 05:22:16;;;;;;;8.05;2.63;;;;;;;11.22;100.00;100131.88;5718593;22;20080;-91
2022/05/24 05:24:51;;;;;;;7.63;2.77;;;;;;;11.14;100.00;100119.06;5034301;28;20156;-88
2022/05/24 05:27:20;;;;;;;8.37;2.87;;;;;;;11.26;100.00;100140.16;5000757;28;20296;-88
2022/05/24 05:32:33;;;;;;;8.63;2.53;;;;;;;11.33;100.00;100141.44;5000506;28;20036;-89
2022/05/24 05:35:11;;;;;;;9.95;2.50;;;;;;;11.39;100.00;100149.47;5011822;28;20026;-87
2022/05/24 05:38:31;;;;;;;11.15;2.65;;;;;;;11.40;100.00;100141.16;5011022;28;20034;-93
2022/05/24 05:41:04;;;;;;;7.75;2.70;;;;;;;11.16;100.00;100108.84;4984667;28;20046;-92
2022/05/24 05:43:33;;;;;;;13.68;2.78;;;;;;;11.38;100.00;100140.63;4992796;28;20113;-96
2022/05/24 05:46:03;;;;;;;10.18;2.80;;;;;;;11.35;100.00;100127.78;4991832;28;20085;-91
2022/05/24 05:51:22;;;;;;;11.80;2.60;;;;;;;11.47;100.00;100138.16;5074897;22;20389;-92
2022/05/24 05:54:09;;;;;;;13.93;2.87;;;;;;;11.50;100.00;100148.31;5010399;28;20299;-91
2022/05/24 05:56:36;;;;;;;7.85;2.22;;;;;;;11.51;100.00;100168.69;5033337;28;20039;-90
2022/05/24 06:01:58;;;;;;;9.43;2.47;;;;;;;11.52;100.00;100181.00;5233579;22;20527;-95
2022/05/24 06:04:33;;;;;;;8.95;2.63;;;;;;;11.33;100.00;100170.16;5014680;28;20029;-92
2022/05/24 06:06:59;;;;;;;9.10;2.10;;;;;;;11.37;100.00;100184.63;5014191;28;20036;-90
2022/05/24 06:10:12;;;;;;;11.30;2.65;;;;;;;11.43;100.00;100182.69;5009861;28;20026;-91
2022/05/24 06:12:48;;;;;;;8.40;2.22;;;;;;;11.52;100.00;100168.41;5014610;28;20041;-91
2022/05/24 06:15:19;;;;;;;11.68;2.28;;;;;;;11.63;100.00;100157.59;5015495;28;20092;-87
2022/05/24 06:17:58;;;;;;;11.67;2.20;;;;;;;11.88;99.15;100190.66;5034050;28;20032;-88
2022/05/24 06:20:27;;;;;;;13.50;2.33;;;;;;;11.88;97.80;100159.25;5024016;28;20384;-88
2022/05/24 06:23:04;;;;;;;11.70;2.50;;;;;;;12.07;97.57;100182.72;5016812;28;20549;-90
2022/05/24 06:26:02;;;;;;;13.30;2.55;;;;;;;12.20;96.46;100165.97;5018379;28;20018;-89
2022/05/24 06:28:28;;;;;;;6.22;1.77;;;;;;;12.46;96.90;100195.22;5007667;28;20042;-88
2022/05/24 06:30:54;;;;;;;8.35;2.20;;;;;;;12.46;96.80;100184.47;5013520;28;20053;-87
2022/05/24 06:33:22;;;;;;;7.60;2.10;;;;;;;12.68;95.62;100180.47;5013187;28;20062;-88
2022/05/24 06:35:56;;;;;;;9.00;1.70;;;;;;;12.74;93.08;100184.72;4994744;28;20100;-88
2022/05/24 06:38:31;;;;;;;10.65;2.10;;;;;;;12.66;92.70;100167.34;5014056;28;20397;-89
2022/05/24 06:41:04;;;;;;;9.57;2.20;;;;;;;12.86;93.77;100177.00;5005497;28;20038;-94
2022/05/24 06:43:40;;;;;;;7.88;1.90;;;;;;;12.94;93.86;100180.16;4978126;28;20042;-92
2022/05/24 06:46:21;;;;;;;6.20;1.70;;;;;;;13.27;93.79;100199.06;5015558;28;20026;-93
2022/05/24 06:48:47;;;;;;;5.85;1.80;;;;;;;13.49;88.04;100220.03;5014996;28;20493;-90
2022/05/24 06:51:53;;;;;;;8.50;1.80;;;;;;;13.41;91.29;100228.78;5016666;28;20021;-94
2022/05/24 06:54:22;;;;;;;7.78;1.83;;;;;;;13.46;91.69;100215.22;5006280;28;20041;-89
2022/05/24 06:56:58;;;;;;;;;;;;;;;;;;;;;
2022/05/24 07:02:27;;;;;;;9.98;2.05;;;;;;;14.16;86.29;100248.56;5016288;28;20061;-88
2022/05/24 07:04:58;;;;;;;10.52;1.50;;;;;;;14.48;84.62;100259.63;5019108;28;20036;-94
2022/05/24 07:07:24;;;;;;;6.18;1.60;;;;;;;14.43;81.23;100262.41;5020716;28;20054;-93
2022/05/24 07:09:56;;;;;;;4.22;1.40;;;;;;;14.56;80.39;100256.25;5548792;22;20041;-92
2022/05/24 07:12:23;;;;;;;9.57;1.58;;;;;;;14.59;79.09;100263.72;5059660;28;20041;-92
2022/05/24 07:14:52;;;;;;;6.00;1.67;;;;;;;14.65;79.51;100262.53;5042022;28;20087;-95
2022/05/24 07:17:31;;;;;;;7.43;1.58;;;;;;;15.03;82.16;100282.31;5044401;28;20033;-93
2022/05/24 07:20:12;;;;;;;7.32;1.65;;;;;;;15.09;81.01;100256.84;5056526;28;20032;-90
2022/05/24 07:23:07;;;;;;;4.43;1.60;;;;;;;15.52;80.48;100286.13;5060810;28;20431;-94
2022/05/24 07:25:45;;;;;;;8.23;1.60;;;;;;;15.38;79.51;100272.69;5058844;28;20803;-92
2022/05/24 07:28:12;;;;;;;6.20;1.60;;;;;;;15.23;77.62;100257.63;5055862;28;20037;-93
2022/05/24 07:30:42;;;;;;;5.07;1.55;;;;;;;15.28;76.63;100262.91;5027534;28;20038;-92
2022/05/24 07:33:41;;;;;;;6.68;1.60;;;;;;;15.58;79.36;100287.63;5036523;28;20435;-93
2022/05/24 07:36:07;;;;;;;6.03;1.17;;;;;;;15.26;73.83;100278.63;5052826;28;20018;-91
2022/05/24 07:38:34;;;;;;;3.65;1.10;;;;;;;15.37;75.10;100281.06;5057200;28;20033;-93
2022/05/24 07:47:10;;;;;;;7.75;1.40;;;;;;;15.01;78.06;100281.81;5051861;28;20067;-90
2022/05/24 07:53:03;;;;;;;6.80;1.43;;;;;;;15.80;76.31;100296.88;5027589;28;22120;-91
2022/05/24 07:55:38;;;;;;;4.55;1.02;;;;;;;15.97;73.27;100298.94;4995957;28;20132;-92
2022/05/24 08:00:58;;;;;;;4.75;1.40;;;;;;;15.82;70.40;100267.66;4931988;29;20087;-90
2022/05/24 08:14:27;;;;;;;5.55;1.52;;;;;;;16.35;68.90;100301.22;4994254;28;20041;-92
2022/05/24 08:17:07;;;;;;;9.13;1.50;;;;;;;16.74;67.99;100282.66;4993674;28;20034;-90
2022/05/24 08:20:09;;;;;;;2.70;1.33;;;;;;;16.97;66.52;100319.66;4994280;28;20030;-91
2022/05/24 08:23:04;;;;;;;6.03;1.67;;;;;;;17.20;64.28;100317.66;4994190;28;20288;-92
2022/05/24 08:26:00;;;;;;;5.22;1.70;;;;;;;17.16;65.16;100305.88;5013761;28;20030;-91
2022/05/24 08:34:04;;;;;;;7.30;2.35;;;;;;;17.63;59.80;100333.19;5079900;22;20103;-91
2022/05/24 08:36:29;;;;;;;6.57;2.20;;;;;;;17.24;59.87;100315.91;5017344;28;20041;-92
2022/05/24 08:38:58;;;;;;;4.47;2.10;;;;;;;17.00;62.13;100346.13;5005133;28;20113;-92
2022/05/24 08:42:05;;;;;;;7.22;1.85;;;;;;;16.98;65.05;100368.06;4993715;28;20030;-91
2022/05/24 08:51:07;;;;;;;4.22;1.67;;;;;;;16.60;64.58;100354.97;4995824;28;20057;-92
2022/05/24 08:56:58;;;;;;;3.60;1.23;;;;;;;17.07;65.55;100382.44;5002371;28;20508;-93
2022/05/24 08:59:57;;;;;;;3.83;1.33;;;;;;;17.23;63.96;100365.75;5008012;28;20292;-95
2022/05/24 09:03:07;;;;;;;4.15;1.52;;;;;;;17.38;64.45;100359.91;5002062;28;20030;-94
2022/05/24 09:06:18;;;;;;;5.18;1.55;;;;;;;17.25;61.67;100385.22;5003756;28;20030;-94
2022/05/24 09:09:09;;;;;;;3.63;1.10;;;;;;;16.92;63.36;100372.00;4929542;29;20506;-92
2022/05/24 09:12:21;;;;;;;2.35;1.10;;;;;;;16.81;62.68;100398.53;4919401;29;20031;-94
2022/05/24 09:21:01;;;;;;;5.25;1.08;;;;;;;16.39;66.24;100424.97;5028210;28;20060;-93
2022/05/24 09:24:08;;;;;;;4.05;1.40;;;;;;;16.65;63.61;100423.25;5036127;28;20033;-93
2022/05/24 09:26:34;;;;;;;2.43;1.40;;;;;;;16.92;61.38;100393.66;5017943;28;20102;-94
2022/05/24 09:29:43;;;;;;;6.83;1.90;;;;;;;17.34;59.88;100423.13;5018693;28;20340;-92
2022/05/24 09:32:11;;;;;;;4.30;2.22;;;;;;;17.45;59.36;100410.13;5039877;28;20026;-93
2022/05/24 09:34:38;;;;;;;3.20;2.00;;;;;;;17.28;58.16;100403.53;5039811;28;20029;-93
2022/05/24 09:44:49;;;;;;;3.90;2.35;;;;;;;16.77;60.60;100444.34;5024617;28;20047;-94
2022/05/24 09:54:04;;;;;;;4.97;2.67;;;;;;;17.77;58.69;100437.91;4995701;28;20064;-94
2022/05/24 10:19:47;;;;;;;4.78;3.20;;;;;;;20.20;53.92;100470.53;5015635;28;20398;-94
2022/05/24 10:26:28;;;;;;;3.83;3.30;;;;;;;20.69;48.27;100473.47;4954963;28;20074;-91
2022/05/24 10:29:12;;;;;;;2.80;2.60;;;;;;;20.32;51.42;100473.31;4953476;29;20283;-93
2022/05/24 10:38:35;;;;;;;3.45;3.15;;;;;;;20.34;51.02;100473.00;5834333;22;20057;-92
2022/05/24 10:41:19;;;;;;;4.38;4.00;;;;;;;20.37;49.05;100464.13;5029590;28;20033;-91
2022/05/24 10:44:24;;;;;;;4.00;3.50;;;;;;;20.79;49.60;100485.09;5017015;28;20045;-91
2022/05/24 10:47:21;;;;;;;4.57;3.60;;;;;;;20.78;47.23;100488.94;5031202;28;20057;-91
2022/05/24 10:50:02;;;;;;;4.68;3.80;;;;;;;20.24;47.90;100471.47;5017344;28;20030;-91
2022/05/24 10:53:08;;;;;;;3.92;3.47;;;;;;;19.99;49.65;100493.06;4995939;28;20022;-91
2022/05/24 10:56:00;;;;;;;4.10;3.80;;;;;;;19.63;50.23;100483.50;5013516;28;20034;-91
2022/05/24 10:58:40;;;;;;;6.90;4.30;;;;;;;19.32;49.05;100488.09;5014181;28;20313;-91
2022/05/24 11:01:38;;;;;;;4.10;3.80;;;;;;;19.04;49.94;100487.69;5014277;28;20104;-91
2022/05/24 11:08:27;;;;;;;7.95;3.05;;;;;;;19.61;50.80;100461.28;5014467;28;20058;-92
2022/05/24 11:11:17;;;;;;;3.20;2.90;;;;;;;19.63;50.74;100459.03;5017580;28;20532;-90
2022/05/24 11:14:20;;;;;;;4.60;2.85;;;;;;;19.91;50.57;100474.88;5014384;28;20041;-91
2022/05/24 11:17:29;;;;;;;3.00;2.70;;;;;;;19.93;51.09;100497.91;4996427;28;20036;-90
2022/05/24 11:19:56;;;;;;;5.50;2.90;;;;;;;19.79;50.63;100487.25;5033290;28;20040;-91
2022/05/24 11:22:43;;;;;;;7.68;2.90;;;;;;;19.87;50.81;100492.97;5013871;28;20018;-91
2022/05/24 11:25:27;;;;;;;5.73;3.07;;;;;;;20.02;51.81;100486.16;5013918;28;20084;-92
2022/05/24 11:28:05;;;;;;;4.73;3.70;;;;;;;19.78;50.95;100495.72;5022173;28;20314;-92
2022/05/24 11:30:30;;;;;;;3.83;3.40;;;;;;;19.73;49.26;100501.34;4993992;28;20030;-90
2022/05/24 11:33:09;;;;;;;4.00;3.60;;;;;;;20.05;50.25;100501.81;4995574;28;20022;-92
2022/05/24 11:35:41;;;;;;;3.58;3.28;;;;;;;20.64;48.64;100498.16;4996409;28;20026;-91
2022/05/24 11:38:41;;;;;;;4.15;3.80;;;;;;;21.29;46.48;100503.13;5008943;28;20041;-91
2022/05/24 11:41:11;;;;;;;6.95;3.40;;;;;;;21.63;45.23;100505.81;5015312;28;20420;-90
2022/05/24 11:43:38;;;;;;;3.60;3.30;;;;;;;21.80;42.09;100510.22;5004745;28;20452;-91
2022/05/24 11:46:22;;;;;;;3.42;3.13;;;;;;;21.76;46.19;100514.75;5016398;28;20026;-91
2022/05/24 11:48:54;;;;;;;3.33;2.90;;;;;;;21.54;46.11;100519.53;5220114;22;20056;-92
2022/05/24 11:51:41;;;;;;;3.28;3.05;;;;;;;21.27;45.86;100496.44;5032767;28;20021;-92
2022/05/24 11:54:32;;;;;;;2.83;2.60;;;;;;;21.24;46.95;100503.34;5033641;28;20056;-92
2022/05/24 11:57:38;;;;;;;3.37;3.17;;;;;;;21.44;45.05;100530.84;5020652;28;20307;-91
2022/05/24 12:00:58;;;;;;;3.15;2.85;;;;;;;21.40;45.78;100516.31;5012283;28;20378;-91
2022/05/24 12:09:24;;;;;;;3.63;3.38;;;;;;;21.06;45.16;100535.44;5020490;28;20048;-91
2022/05/24 12:12:19;;;;;;;5.95;3.30;;;;;;;21.02;46.88;100537.25;5019386;28;20036;-90
2022/05/24 12:14:45;;;;;;;3.50;3.20;;;;;;;20.84;44.32;100542.03;5015072;28;20498;-91
2022/05/24 12:17:15;;;;;;;3.22;2.90;;;;;;;20.82;46.85;100542.38;5013811;28;20064;-90
2022/05/24 12:22:15;;;;;;;4.53;2.67;;;;;;;20.07;49.15;100565.66;5030406;28;20637;-89
2022/05/24 12:24:41;;;;;;;10.93;3.33;;;;;;;19.20;60.34;100589.25;5031933;28;20349;-91
2022/05/24 12:27:31;;;;;;;7.80;3.58;;;;;;;17.97;63.74;100586.38;5029736;28;20044;-93
2022/05/24 12:30:28;;;;;;;5.78;3.47;;;;;;;16.81;68.78;100591.41;5010473;28;20405;-92
2022/05/24 12:32:56;;;;;;;7.38;3.03;;;;;;;16.45;72.56;100586.78;5004657;28;20034;-93
2022/05/24 12:35:24;;;;;;;4.97;3.50;;;;;;;16.56;74.55;100592.00;5007549;28;20015;-92
2022/05/24 12:37:53;;;;;;;3.53;3.22;;;;;;;16.50;74.17;100594.03;5020339;28;20026;-90
2022/05/24 12:40:29;;;;;;;4.20;3.80;;;;;;;16.38;73.70;100597.25;5033708;28;20053;-91
2022/05/24 12:42:57;;;;;;;3.90;3.53;;;;;;;16.30;71.75;100598.75;5042509;28;20013;-92
2022/05/24 12:45:38;;;;;;;3.93;3.50;;;;;;;16.39;73.36;100598.84;5038895;22;20316;-92
2022/05/24 12:48:47;;;;;;;4.03;2.80;;;;;;;16.63;72.79;100603.19;5007151;28;20121;-92
2022/05/24 12:51:56;;;;;;;3.75;2.90;;;;;;;16.77;72.07;100619.38;4972683;28;20033;-92
2022/05/24 12:57:59;;;;;;;3.13;1.90;;;;;;;18.06;70.53;100596.50;5023847;22;20091;-92
2022/05/24 13:00:25;;;;;;;4.22;1.70;;;;;;;18.81;68.02;100623.59;5013310;28;20034;-95
2022/05/24 13:09:54;;;;;;;4.18;1.70;;;;;;;20.02;62.06;100609.34;4992730;28;20043;-93
2022/05/24 13:12:30;;;;;;;4.50;1.88;;;;;;;19.88;61.60;100604.13;5001982;28;20034;-91
2022/05/24 13:15:15;;;;;;;5.10;2.10;;;;;;;19.35;59.61;100623.28;5010073;28;20386;-90
2022/05/24 13:18:27;;;;;;;4.32;1.75;;;;;;;18.79;62.84;100634.00;5005998;22;20077;-94
2022/05/24 13:21:08;;;;;;;3.67;2.15;;;;;;;18.00;66.92;100636.47;4992929;28;20038;-95
2022/05/24 13:23:45;;;;;;;3.22;2.28;;;;;;;18.12;70.75;100644.03;4988845;28;20030;-95
2022/05/24 13:26:19;;;;;;;2.75;2.10;;;;;;;18.62;72.82;100637.47;5012093;28;20036;-93
2022/05/24 13:28:56;;;;;;;2.70;2.00;;;;;;;18.68;69.68;100622.63;5003394;28;20030;-95
2022/05/24 13:34:53;;;;;;;5.10;2.20;;;;;;;19.39;66.35;100647.09;5012123;28;20335;-94
2022/05/24 13:40:00;;;;;;;2.92;1.73;;;;;;;20.18;59.69;100641.41;5083872;22;20073;-94
2022/05/24 13:42:57;;;;;;;2.35;1.40;;;;;;;20.69;56.75;100644.94;4991344;28;20491;-96
2022/05/24 13:45:26;;;;;;;1.95;1.45;;;;;;;20.95;56.21;100646.72;5034149;28;20077;-92
2022/05/24 13:51:24;;;;;;;3.22;1.30;;;;;;;21.72;53.18;100644.75;5012529;28;20122;-94
2022/05/24 13:54:28;;;;;;;1.75;1.30;;;;;;;21.75;52.07;100653.03;4995710;28;20026;-95
2022/05/24 14:02:32;;;;;;;2.97;1.40;;;;;;;21.81;50.10;100650.09;5075045;22;20311;-93
2022/05/24 14:05:32;;;;;;;1.20;1.08;;;;;;;22.00;48.32;100649.53;5035190;28;20071;-91
2022/05/24 14:11:59;;;;;;;1.90;1.17;;;;;;;21.93;49.01;100644.66;4964201;28;20118;-96
2022/05/24 14:14:39;;;;;;;1.88;1.10;;;;;;;21.23;48.77;100618.91;4979960;28;20045;-96
2022/05/24 14:17:09;;;;;;;2.67;1.10;;;;;;;21.47;47.36;100629.06;4978304;28;20150;-95
2022/05/24 14:19:41;;;;;;;1.52;1.00;;;;;;;21.97;47.42;100634.66;4993105;28;20091;-95
2022/05/24 14:22:09;;;;;;;2.78;1.25;;;;;;;22.12;45.72;100618.75;4980925;28;20026;-96
2022/05/24 14:24:43;;;;;;;5.20;1.40;;;;;;;22.03;45.81;100659.78;4997577;28;20041;-95
2022/05/24 14:27:12;;;;;;;2.50;1.03;;;;;;;21.21;46.19;100628.56;4990474;28;20047;-94
2022/05/24 14:29:41;;;;;;;2.13;1.20;;;;;;;20.97;46.71;100644.47;5028476;28;20268;-96
2022/05/24 14:32:08;;;;;;;2.72;1.05;;;;;;;20.40;47.76;100641.16;5040846;28;20183;-94
2022/05/24 14:35:00;;;;;;;2.65;1.40;;;;;;;19.96;49.96;100659.59;5047491;28;20752;-96
2022/05/24 14:37:25;;;;;;;3.10;1.20;;;;;;;19.40;50.77;100646.75;5042145;28;20117;-92
2022/05/24 14:39:50;;;;;;;3.55;1.35;;;;;;;19.12;52.37;100660.69;5044298;28;20053;-96